createdAt,value
2023-05-05T00:01:01.073Z,47.13
2023-05-05T00:03:28.104Z,47.12
2023-05-05T00:05:55.416Z,47.40
2023-05-05T00:08:22.884Z,47.48
2023-05-05T00:10:51.571Z,47.64
2023-05-05T00:13:19.536Z,47.34
2023-05-05T00:15:47.807Z,47.79
2023-05-05T00:18:16.631Z,47.76
2023-05-05T00:20:44.376Z,47.82
2023-05-05T00:23:11.041Z,47.91
2023-05-05T00:25:37.948Z,47.90
2023-05-05T00:28:04.843Z,48.09
2023-05-05T00:30:31.860Z,48.24
2023-05-05T00:32:58.488Z,48.31
2023-05-05T00:35:25.157Z,48.59
2023-05-05T00:37:51.810Z,48.75
2023-05-05T00:40:18.881Z,48.55
2023-05-05T00:42:47.403Z,48.73
2023-05-05T00:45:15.492Z,48.81
2023-05-05T00:47:43.684Z,48.92
2023-05-05T00:50:14.553Z,49.06
2023-05-05T00:52:41.238Z,49.03
2023-05-05T00:55:08.322Z,49.06
2023-05-05T00:57:35.726Z,49.36
2023-05-05T01:00:02.968Z,49.26
2023-05-05T01:02:31.293Z,49.32
2023-05-05T01:04:58.565Z,49.43
2023-05-05T01:07:43.488Z,49.68
2023-05-05T01:10:20.748Z,49.89
2023-05-05T01:13:22.544Z,49.57
2023-05-05T01:16:01.083Z,49.87
2023-05-05T01:18:41.674Z,49.76
2023-05-05T01:21:18.597Z,49.95
2023-05-05T01:23:57.125Z,49.85
2023-05-05T01:26:42.788Z,49.17
2023-05-05T01:29:41.510Z,48.65
2023-05-05T01:32:11.477Z,48.56
2023-05-05T01:35:08.894Z,48.95
2023-05-05T01:37:47.730Z,49.17
2023-05-05T01:40:18.315Z,49.35
2023-05-05T01:42:45.280Z,49.73
2023-05-05T01:45:14.705Z,49.27
2023-05-05T01:47:44.093Z,48.97
2023-05-05T01:50:12.503Z,48.57
2023-05-05T01:52:41.158Z,48.65
2023-05-05T01:55:09.939Z,48.98
2023-05-05T01:57:39.147Z,49.19
2023-05-05T02:00:07.408Z,49.20
2023-05-05T02:02:36.151Z,49.53
2023-05-05T02:05:04.510Z,49.86
2023-05-05T02:07:34.302Z,50.16
2023-05-05T02:10:03.221Z,50.46
2023-05-05T02:12:31.695Z,50.29
2023-05-05T02:15:01.594Z,50.48
2023-05-05T02:17:30.094Z,50.58
2023-05-05T02:19:59.071Z,50.84
2023-05-05T02:22:25.697Z,50.89
2023-05-05T02:24:52.624Z,51.17
2023-05-05T02:27:21.786Z,51.42
2023-05-05T02:29:57.263Z,51.38
2023-05-05T02:32:31.756Z,51.65
2023-05-05T02:35:01.780Z,51.93
2023-05-05T02:37:31.739Z,51.55
2023-05-05T02:40:02.810Z,51.70
2023-05-05T02:42:35.063Z,51.99
2023-05-05T02:45:08.037Z,51.89
2023-05-05T02:47:36.630Z,51.87
2023-05-05T02:50:08.428Z,52.22
2023-05-05T02:52:36.104Z,52.20
2023-05-05T02:55:05.587Z,52.64
2023-05-05T02:57:44.888Z,52.60
2023-05-05T03:00:20.878Z,52.43
2023-05-05T03:03:06.939Z,52.62
2023-05-05T03:05:45.890Z,52.28
2023-05-05T03:08:30.129Z,52.93
2023-05-05T03:11:08.109Z,52.84
2023-05-05T03:13:37.251Z,53.00
2023-05-05T03:16:06.978Z,53.01
2023-05-05T03:18:40.788Z,52.85
2023-05-05T03:21:10.329Z,53.03
2023-05-05T03:23:37.225Z,53.21
2023-05-05T03:26:03.933Z,53.31
2023-05-05T03:28:31.571Z,53.12
2023-05-05T03:30:58.148Z,53.39
2023-05-05T03:33:27.723Z,53.71
2023-05-05T03:35:54.399Z,53.23
2023-05-05T03:38:20.983Z,53.57
2023-05-05T03:40:47.603Z,53.97
2023-05-05T03:43:14.361Z,53.68
2023-05-05T03:45:41.086Z,53.71
2023-05-05T03:48:09.730Z,53.64
2023-05-05T03:50:36.745Z,53.77
2023-05-05T03:53:03.481Z,53.94
2023-05-05T03:55:30.118Z,53.68
2023-05-05T03:57:56.758Z,53.87
2023-05-05T04:00:23.497Z,53.71
2023-05-05T04:02:50.220Z,53.71
2023-05-05T04:05:17.033Z,53.94
2023-05-05T04:07:43.614Z,53.66
2023-05-05T04:10:13.321Z,53.88
2023-05-05T04:12:39.981Z,53.81
2023-05-05T04:15:07.080Z,53.31
2023-05-05T04:17:36.499Z,53.70
2023-05-05T04:20:03.469Z,54.63
2023-05-05T04:22:32.839Z,54.62
2023-05-05T04:24:59.508Z,54.62
2023-05-05T04:27:26.386Z,54.63
2023-05-05T04:29:53.011Z,55.84
2023-05-05T04:32:19.698Z,56.60
2023-05-05T04:34:46.916Z,57.90
2023-05-05T04:37:13.813Z,58.76
2023-05-05T04:39:41.533Z,59.19
2023-05-05T04:42:09.053Z,60.12
2023-05-05T04:44:35.872Z,60.35
2023-05-05T04:47:02.680Z,60.08
2023-05-05T04:49:30.383Z,60.41
2023-05-05T04:51:57.605Z,60.91
2023-05-05T04:54:24.191Z,61.33
2023-05-05T04:56:51.004Z,61.05
2023-05-05T04:59:17.673Z,61.78
2023-05-05T05:01:44.811Z,62.04
2023-05-05T05:04:11.519Z,61.99
2023-05-05T05:06:38.143Z,62.01
2023-05-05T05:09:04.797Z,62.92
2023-05-05T05:11:31.493Z,63.06
2023-05-05T05:13:58.069Z,63.31
2023-05-05T05:16:25.207Z,63.67
2023-05-05T05:18:51.919Z,63.20
2023-05-05T05:21:18.507Z,63.51
2023-05-05T05:23:45.093Z,62.58
2023-05-05T05:26:11.799Z,62.20
2023-05-05T05:28:41.129Z,62.91
2023-05-05T05:31:07.874Z,62.19
2023-05-05T05:33:34.491Z,61.64
2023-05-05T05:36:01.051Z,61.94
2023-05-05T05:38:27.621Z,61.27
2023-05-05T05:40:54.641Z,59.89
2023-05-05T05:43:21.383Z,58.79
2023-05-05T05:45:48.125Z,58.12
2023-05-05T05:48:14.791Z,57.11
2023-05-05T05:50:41.722Z,56.95
2023-05-05T05:53:08.367Z,57.56
2023-05-05T05:55:35.356Z,56.98
2023-05-05T05:58:01.916Z,56.54
2023-05-05T06:00:28.562Z,56.43
2023-05-05T06:02:55.247Z,54.99
2023-05-05T06:05:21.826Z,54.99
2023-05-05T06:07:48.398Z,54.28
2023-05-05T06:10:25.645Z,53.60
2023-05-05T06:12:53.883Z,51.97
2023-05-05T06:15:20.871Z,51.12
2023-05-05T06:17:47.650Z,48.79
2023-05-05T06:20:14.241Z,47.73
2023-05-05T06:22:40.918Z,47.28
2023-05-05T06:25:07.851Z,45.99
2023-05-05T06:27:34.769Z,45.64
2023-05-05T06:30:01.396Z,45.75
2023-05-05T06:32:28.038Z,45.00
2023-05-05T06:34:54.699Z,44.59
2023-05-05T06:37:21.405Z,44.65
2023-05-05T06:39:48.012Z,43.56
2023-05-05T06:42:14.604Z,43.99
2023-05-05T06:44:41.572Z,44.17
2023-05-05T06:47:08.173Z,43.18
2023-05-05T06:49:34.801Z,43.14
2023-05-05T06:52:01.696Z,42.21
2023-05-05T06:54:28.289Z,42.56
2023-05-05T06:56:54.842Z,41.59
2023-05-05T06:59:21.563Z,40.81
2023-05-05T07:01:48.204Z,40.73
2023-05-05T07:04:14.914Z,40.16
2023-05-05T07:06:41.610Z,38.96
2023-05-05T07:09:08.375Z,38.92
2023-05-05T07:11:35.192Z,39.00
2023-05-05T07:14:02.292Z,38.03
2023-05-05T07:16:28.989Z,37.64
2023-05-05T07:18:55.625Z,38.51
2023-05-05T07:21:24.381Z,37.79
2023-05-05T07:23:50.935Z,37.36
2023-05-05T07:26:17.618Z,36.49
2023-05-05T07:28:44.778Z,36.92
2023-05-05T07:31:11.384Z,37.36
2023-05-05T07:33:38.036Z,37.05
2023-05-05T07:36:05.097Z,35.57
2023-05-05T07:38:32.061Z,36.66
2023-05-05T07:40:58.700Z,34.98
2023-05-05T07:43:25.812Z,36.04
2023-05-05T07:45:52.499Z,35.64
2023-05-05T07:48:19.215Z,35.81
2023-05-05T07:50:46.020Z,35.33
2023-05-05T07:53:14.743Z,34.32
2023-05-05T07:55:42.165Z,34.52
2023-05-05T07:58:12.638Z,33.33
2023-05-05T08:00:39.895Z,33.52
2023-05-05T08:03:08.939Z,34.14
2023-05-05T08:05:38.492Z,33.88
2023-05-05T08:08:06.192Z,33.80
2023-05-05T08:10:32.784Z,33.99
2023-05-05T08:12:59.476Z,33.75
2023-05-05T08:15:26.174Z,33.05
2023-05-05T08:17:56.093Z,33.03
2023-05-05T08:20:23.123Z,33.42
2023-05-05T08:22:49.772Z,33.46
2023-05-05T08:25:16.351Z,33.61
2023-05-05T08:27:43.354Z,33.71
2023-05-05T08:30:10.844Z,33.39
2023-05-05T08:32:38.539Z,33.45
2023-05-05T08:35:06.565Z,33.97
2023-05-05T08:37:33.550Z,33.64
2023-05-05T08:40:00.407Z,34.63
2023-05-05T08:42:37.273Z,35.49
2023-05-05T08:45:07.768Z,36.06
2023-05-05T08:47:36.833Z,35.96
2023-05-05T08:50:05.710Z,34.75
2023-05-05T08:52:44.680Z,36.27
2023-05-05T08:55:27.330Z,36.49
2023-05-05T08:57:58.478Z,37.43
2023-05-05T09:00:27.263Z,37.77
2023-05-05T09:02:57.573Z,37.88
2023-05-05T09:05:25.030Z,36.22
2023-05-05T09:07:51.684Z,36.41
2023-05-05T09:10:18.867Z,38.27
2023-05-05T09:12:45.646Z,37.74
2023-05-05T09:15:14.428Z,38.44
2023-05-05T09:17:41.869Z,38.26
2023-05-05T09:20:10.589Z,38.17
2023-05-05T09:22:42.028Z,38.07
2023-05-05T09:25:14.030Z,38.87
2023-05-05T09:27:50.490Z,40.01
2023-05-05T09:30:25.645Z,39.74
2023-05-05T09:32:56.546Z,39.85
2023-05-05T09:35:23.646Z,39.32
2023-05-05T09:37:50.361Z,38.27
2023-05-05T09:40:19.154Z,38.51
2023-05-05T09:42:46.317Z,38.49
2023-05-05T09:45:19.074Z,38.20
2023-05-05T09:47:49.335Z,36.90
2023-05-05T09:50:20.615Z,37.69
2023-05-05T09:53:03.616Z,39.53
2023-05-05T09:55:33.489Z,38.29
2023-05-05T09:58:26.495Z,37.81
2023-05-05T10:00:54.801Z,39.05
2023-05-05T10:03:21.789Z,38.03
2023-05-05T10:05:50.556Z,36.99
2023-05-05T10:08:19.648Z,36.81
2023-05-05T10:10:59.606Z,38.41
2023-05-05T10:13:27.185Z,37.24
2023-05-05T10:15:55.842Z,37.78
2023-05-05T10:18:27.154Z,37.29
2023-05-05T10:20:58.470Z,37.92
2023-05-05T10:23:49.480Z,37.33
2023-05-05T10:26:19.960Z,37.09
2023-05-05T10:28:56.923Z,37.81
2023-05-05T10:31:32.979Z,38.55
2023-05-05T10:34:21.464Z,38.60
2023-05-05T10:36:49.812Z,39.48
2023-05-05T10:39:19.847Z,38.32
2023-05-05T10:41:48.259Z,38.51
2023-05-05T10:44:15.635Z,36.85
2023-05-05T10:46:44.291Z,37.90
2023-05-05T10:49:29.016Z,37.90
2023-05-05T10:52:02.114Z,39.08
2023-05-05T10:54:32.695Z,39.29
2023-05-05T10:57:02.624Z,38.80
2023-05-05T10:59:38.860Z,38.68
2023-05-05T11:02:26.790Z,37.65
2023-05-05T11:05:10.471Z,38.48
2023-05-05T11:07:39.822Z,39.04
2023-05-05T11:10:11.610Z,38.51
2023-05-05T11:13:10.638Z,37.45
2023-05-05T11:15:38.048Z,37.43
2023-05-05T11:18:07.928Z,38.43
2023-05-05T11:20:39.780Z,38.00
2023-05-05T11:23:06.663Z,39.23
2023-05-05T11:25:41.050Z,38.84
2023-05-05T11:28:16.761Z,38.40
2023-05-05T11:30:56.011Z,38.05
2023-05-05T11:33:33.648Z,37.98
2023-05-05T11:36:03.408Z,36.40
2023-05-05T11:39:11.448Z,36.58
2023-05-05T11:41:47.390Z,36.17
2023-05-05T11:44:21.194Z,37.59
2023-05-05T11:46:54.308Z,38.42
2023-05-05T11:49:37.487Z,39.01
2023-05-05T11:52:04.981Z,38.69
2023-05-05T11:54:34.611Z,38.57
2023-05-05T11:57:05.135Z,37.77
2023-05-05T11:59:33.309Z,37.45
2023-05-05T12:02:03.361Z,36.91
2023-05-05T12:04:34.298Z,37.32
2023-05-05T12:07:01.099Z,36.59
2023-05-05T12:09:27.864Z,36.63
2023-05-05T12:11:59.820Z,37.28
2023-05-05T12:14:30.042Z,38.98
2023-05-05T12:17:06.816Z,38.70
2023-05-05T12:19:33.920Z,37.39
2023-05-05T12:22:05.225Z,37.18
2023-05-05T12:24:31.912Z,36.71
2023-05-05T12:27:11.689Z,37.17
2023-05-05T12:29:38.366Z,37.53
2023-05-05T12:32:05.752Z,35.44
2023-05-05T12:34:32.960Z,33.78
2023-05-05T12:36:59.772Z,35.86
2023-05-05T12:39:38.658Z,36.38
2023-05-05T12:42:08.713Z,37.01
2023-05-05T12:44:46.683Z,38.19
2023-05-05T12:47:14.476Z,38.04
2023-05-05T12:49:47.014Z,37.71
2023-05-05T12:52:14.481Z,35.92
2023-05-05T12:54:58.655Z,34.45
2023-05-05T12:57:26.155Z,33.26
2023-05-05T12:59:53.450Z,32.18
2023-05-05T13:02:21.018Z,33.73
2023-05-05T13:04:52.949Z,34.69
2023-05-05T13:07:22.823Z,35.71
2023-05-05T13:09:50.343Z,35.33
2023-05-05T13:12:21.730Z,34.97
2023-05-05T13:14:49.356Z,34.63
2023-05-05T13:17:16.007Z,34.49
2023-05-05T13:19:46.058Z,34.45
2023-05-05T13:22:13.628Z,35.80
2023-05-05T13:24:50.651Z,34.93
2023-05-05T13:27:18.934Z,34.63
2023-05-05T13:29:48.574Z,33.75
2023-05-05T13:32:15.372Z,34.41
2023-05-05T13:34:43.613Z,33.56
2023-05-05T13:37:10.382Z,34.12
2023-05-05T13:39:37.134Z,34.74
2023-05-05T13:42:03.900Z,35.11
2023-05-05T13:44:30.519Z,35.13
2023-05-05T13:46:57.303Z,35.52
2023-05-05T13:49:24.024Z,35.26
2023-05-05T13:51:50.869Z,35.21
2023-05-05T13:54:17.570Z,34.61
2023-05-05T13:56:44.306Z,33.75
2023-05-05T13:59:10.984Z,33.22
2023-05-05T14:01:38.085Z,33.01
2023-05-05T14:04:05.934Z,32.38
2023-05-05T14:06:33.683Z,32.38
2023-05-05T14:09:00.629Z,32.10
2023-05-05T14:11:27.572Z,32.35
2023-05-05T14:13:54.215Z,32.81
2023-05-05T14:16:20.900Z,32.75
2023-05-05T14:18:50.674Z,32.93
2023-05-05T14:21:17.324Z,32.51
2023-05-05T14:23:46.776Z,32.60
2023-05-05T14:26:13.528Z,33.46
2023-05-05T14:28:40.169Z,32.84
2023-05-05T14:31:06.958Z,33.31
2023-05-05T14:33:33.569Z,34.41
2023-05-05T14:36:00.160Z,34.22
2023-05-05T14:38:26.832Z,33.66
2023-05-05T14:40:54.707Z,33.68
2023-05-05T14:43:21.948Z,32.96
2023-05-05T14:45:50.418Z,33.36
2023-05-05T14:48:17.683Z,34.03
2023-05-05T14:50:46.368Z,33.99
2023-05-05T14:53:12.987Z,33.95
2023-05-05T14:55:39.571Z,34.28
2023-05-05T14:58:06.350Z,34.04
2023-05-05T15:00:33.087Z,34.26
2023-05-05T15:02:59.816Z,34.13
2023-05-05T15:05:26.620Z,34.54
2023-05-05T15:07:53.192Z,35.06
2023-05-05T15:10:21.828Z,34.46
2023-05-05T15:12:48.918Z,34.29
2023-05-05T15:15:15.579Z,35.29
2023-05-05T15:17:43.211Z,34.82
2023-05-05T15:20:10.295Z,34.38
2023-05-05T15:22:36.957Z,34.55
2023-05-05T15:25:03.860Z,34.25
2023-05-05T15:27:31.717Z,34.02
2023-05-05T15:29:58.463Z,34.40
2023-05-05T15:32:25.224Z,33.84
2023-05-05T15:34:51.933Z,34.40
2023-05-05T15:37:18.565Z,34.78
2023-05-05T15:39:45.249Z,34.68
2023-05-05T15:42:11.949Z,34.45
2023-05-05T15:44:38.637Z,34.37
2023-05-05T15:47:06.489Z,34.47
2023-05-05T15:49:33.131Z,34.33
2023-05-05T15:51:59.809Z,34.51
2023-05-05T15:54:26.607Z,35.16
2023-05-05T15:56:53.264Z,35.72
2023-05-05T15:59:19.959Z,36.02
2023-05-05T16:01:47.330Z,35.65
2023-05-05T16:04:14.128Z,35.77
2023-05-05T16:06:40.966Z,35.52
2023-05-05T16:09:07.740Z,35.54
2023-05-05T16:11:34.475Z,35.89
2023-05-05T16:14:01.108Z,35.83
2023-05-05T16:16:27.774Z,35.79
2023-05-05T16:18:54.456Z,35.71
2023-05-05T16:21:21.079Z,35.92
2023-05-05T16:23:47.741Z,36.11
2023-05-05T16:26:14.412Z,36.12
2023-05-05T16:28:41.052Z,36.17
2023-05-05T16:31:10.730Z,36.30
2023-05-05T16:33:40.868Z,37.16
2023-05-05T16:36:12.587Z,36.55
2023-05-05T16:38:40.488Z,37.16
2023-05-05T16:41:07.765Z,36.66
2023-05-05T16:43:35.315Z,36.16
2023-05-05T16:46:02.110Z,36.30
2023-05-05T16:48:28.821Z,36.10
2023-05-05T16:50:59.018Z,36.34
2023-05-05T16:53:26.232Z,36.33
2023-05-05T16:55:53.780Z,36.17
2023-05-05T16:58:21.448Z,36.54
2023-05-05T17:00:51.927Z,36.38
2023-05-05T17:03:20.227Z,37.35
2023-05-05T17:05:50.013Z,37.33
2023-05-05T17:08:17.074Z,37.04
2023-05-05T17:10:45.125Z,37.78
2023-05-05T17:13:13.389Z,37.64
2023-05-05T17:15:40.632Z,38.51
2023-05-05T17:18:08.115Z,37.90
2023-05-05T17:20:36.404Z,37.95
2023-05-05T17:23:03.370Z,37.71
2023-05-05T17:25:29.956Z,37.31
2023-05-05T17:27:56.873Z,37.49
2023-05-05T17:30:23.537Z,37.34
2023-05-05T17:32:50.254Z,37.67
2023-05-05T17:35:16.975Z,37.82
2023-05-05T17:37:43.591Z,37.84
2023-05-05T17:40:10.500Z,38.21
2023-05-05T17:42:38.349Z,38.24
2023-05-05T17:45:08.813Z,38.20
2023-05-05T17:47:36.303Z,37.96
2023-05-05T17:50:03.342Z,38.29
2023-05-05T17:52:30.052Z,38.14
2023-05-05T17:54:57.002Z,38.50
2023-05-05T17:57:24.834Z,38.48
2023-05-05T17:59:53.580Z,38.19
2023-05-05T18:02:20.514Z,38.78
2023-05-05T18:04:47.427Z,38.76
2023-05-05T18:07:14.714Z,39.30
2023-05-05T18:09:41.457Z,39.30
2023-05-05T18:12:08.219Z,39.61
2023-05-05T18:14:34.910Z,39.70
2023-05-05T18:17:01.631Z,40.30
2023-05-05T18:19:28.416Z,40.70
2023-05-05T18:21:55.106Z,40.23
2023-05-05T18:24:21.714Z,40.57
2023-05-05T18:26:50.509Z,40.83
2023-05-05T18:29:18.591Z,41.38
2023-05-05T18:31:48.649Z,41.37
2023-05-05T18:34:16.831Z,41.88
2023-05-05T18:36:43.486Z,41.99
2023-05-05T18:39:10.295Z,41.98
2023-05-05T18:41:37.153Z,42.74
2023-05-05T18:44:03.947Z,42.67
2023-05-05T18:46:33.571Z,42.81
2023-05-05T18:49:00.705Z,43.01
2023-05-05T18:51:27.944Z,43.16
2023-05-05T18:53:54.990Z,43.28
2023-05-05T18:56:21.890Z,43.34
2023-05-05T18:58:48.928Z,43.97
2023-05-05T19:01:16.175Z,43.88
2023-05-05T19:03:47.827Z,43.56
2023-05-05T19:06:14.823Z,43.78
2023-05-05T19:08:42.128Z,43.82
2023-05-05T19:11:08.858Z,44.20
2023-05-05T19:13:35.432Z,44.32
2023-05-05T19:16:02.333Z,44.30
2023-05-05T19:18:28.984Z,44.63
2023-05-05T19:20:55.632Z,43.93
2023-05-05T19:23:22.739Z,44.11
2023-05-05T19:25:52.849Z,44.35
2023-05-05T19:28:19.673Z,44.23
2023-05-05T19:30:48.888Z,44.27
2023-05-05T19:33:16.277Z,44.49
2023-05-05T19:35:44.939Z,44.22
2023-05-05T19:38:12.048Z,44.66
2023-05-05T19:40:39.760Z,44.80
2023-05-05T19:43:06.425Z,44.94
2023-05-05T19:45:33.875Z,45.20
2023-05-05T19:48:01.683Z,45.63
2023-05-05T19:50:30.403Z,45.71
2023-05-05T19:52:57.818Z,45.71
2023-05-05T19:55:24.636Z,45.73
2023-05-05T19:57:51.507Z,45.70
2023-05-05T20:00:18.755Z,46.00
2023-05-05T20:02:45.884Z,46.11
2023-05-05T20:05:17.271Z,46.08
2023-05-05T20:07:46.921Z,46.58
2023-05-05T20:10:16.827Z,46.78
2023-05-05T20:12:48.471Z,46.76
2023-05-05T20:15:18.869Z,47.17
2023-05-05T20:17:49.489Z,46.98
2023-05-05T20:20:22.726Z,46.94
2023-05-05T20:22:49.858Z,46.65
2023-05-05T20:25:16.711Z,47.28
2023-05-05T20:27:43.547Z,47.34
2023-05-05T20:30:11.023Z,47.58
2023-05-05T20:32:38.379Z,47.76
2023-05-05T20:35:06.210Z,47.92
2023-05-05T20:37:33.175Z,47.60
2023-05-05T20:39:59.788Z,47.34
2023-05-05T20:42:27.859Z,47.59
2023-05-05T20:44:54.753Z,47.86
2023-05-05T20:47:21.446Z,49.16
2023-05-05T20:49:48.088Z,49.29
2023-05-05T20:52:14.702Z,49.54
2023-05-05T20:54:41.361Z,50.12
2023-05-05T20:57:07.997Z,50.20
2023-05-05T20:59:34.739Z,50.11
2023-05-05T21:02:04.185Z,49.54
2023-05-05T21:04:30.901Z,49.01
2023-05-05T21:06:57.570Z,49.33
2023-05-05T21:09:24.270Z,49.78
2023-05-05T21:11:51.028Z,49.49
2023-05-05T21:14:17.731Z,49.41
2023-05-05T21:16:44.446Z,49.35
2023-05-05T21:19:11.130Z,49.81
2023-05-05T21:21:37.693Z,49.38
2023-05-05T21:24:07.007Z,50.37
2023-05-05T21:26:34.438Z,50.46
2023-05-05T21:29:01.111Z,51.56
2023-05-05T21:31:27.806Z,51.61
2023-05-05T21:33:54.487Z,52.05
2023-05-05T21:36:21.393Z,52.53
2023-05-05T21:38:48.128Z,53.10
2023-05-05T21:41:14.823Z,52.86
2023-05-05T21:43:41.456Z,53.68
2023-05-05T21:46:08.795Z,54.07
2023-05-05T21:48:35.561Z,54.60
2023-05-05T21:51:02.212Z,54.67
2023-05-05T21:53:28.845Z,55.26
2023-05-05T21:55:55.484Z,55.51
2023-05-05T21:58:23.857Z,55.23
2023-05-05T22:00:50.943Z,55.17
2023-05-05T22:03:17.766Z,55.46
2023-05-05T22:05:44.564Z,55.00
2023-05-05T22:08:11.486Z,54.89
2023-05-05T22:10:39.244Z,56.11
2023-05-05T22:13:05.912Z,56.54
2023-05-05T22:15:42.621Z,56.79
2023-05-05T22:18:13.061Z,56.92
2023-05-05T22:20:40.627Z,57.00
2023-05-05T22:23:07.373Z,57.40
2023-05-05T22:25:33.956Z,58.10
2023-05-05T22:28:02.855Z,58.13
2023-05-05T22:30:29.449Z,58.25
2023-05-05T22:32:56.208Z,58.19
2023-05-05T22:35:22.877Z,58.51
2023-05-05T22:37:49.481Z,58.86
2023-05-05T22:40:16.224Z,59.18
2023-05-05T22:42:42.967Z,59.54
2023-05-05T22:45:10.404Z,60.06
2023-05-05T22:47:37.413Z,60.27
2023-05-05T22:50:04.251Z,60.65
2023-05-05T22:52:30.837Z,60.76
2023-05-05T22:54:57.458Z,60.34
2023-05-05T22:57:24.367Z,60.66
2023-05-05T22:59:51.165Z,60.47
2023-05-05T23:02:17.848Z,61.12
2023-05-05T23:04:45.135Z,60.75
2023-05-05T23:07:12.914Z,61.46
2023-05-05T23:09:39.664Z,61.99
2023-05-05T23:12:06.673Z,61.60
2023-05-05T23:14:33.279Z,61.62
2023-05-05T23:16:59.973Z,61.35
2023-05-05T23:19:27.160Z,61.67
2023-05-05T23:21:53.935Z,61.67
2023-05-05T23:24:21.871Z,62.15
2023-05-05T23:26:48.530Z,61.86
2023-05-05T23:29:15.114Z,62.17
2023-05-05T23:31:41.672Z,62.91
2023-05-05T23:34:08.607Z,62.72
2023-05-05T23:36:35.250Z,62.83
2023-05-05T23:39:01.850Z,63.50
2023-05-05T23:41:28.427Z,63.78
2023-05-05T23:43:55.069Z,63.87
2023-05-05T23:46:21.696Z,63.86
2023-05-05T23:48:49.728Z,64.16
2023-05-05T23:51:17.031Z,64.28
2023-05-05T23:53:43.867Z,63.76
2023-05-05T23:56:10.548Z,64.41
2023-05-05T23:58:37.090Z,64.27
